Startpagina
METAR-TAF:

METAR-TAF

Vliegvelden :

Mecheria, Algerije

breedte: 34-56N, lengte: 000-26W, hoogte: 1149 m

Actueel weer

Dit bericht is 1 uur en het 18 minuten geleden gemaakt, om 16:00 UTC
Wind 12 kt uit het westen
Temperatuur 11°C
Vochtigheid 58%
Druk 1027 hPa
Zicht 10 km of meer
Weinig wolken op 3000 ft
Gebroken wolken op 3300 ft

METAR: DAAY 261600Z 27012KT 9999 FEW030 BKN033 11/03 Q1027

Tijdstip: 18:18 (17:18 UTC)

Verwachting

Dit bericht is 3 uur en het 18 minuten geleden gemaakt, om 14:00 UTC
Verwachting geldig van 26 om 15 UTC tot 26 om 24 UTC
Wind 10 kt uit het westnoordwesten
Zicht 10 km of meer
Verspreide wolken op 2600 ft
Wijzigt naar
van 26 om 18 UTC tot 26 om 21 UTC
Wind 2 kt uit variabele richting

TAF: DAAY 261400Z 2615/2624 29010KT 9999 SCT026 BECMG 2618/2621 VRB02KT

Waarnemingen en weersverwachtingen van meer dan 4000 vliegvelden (METAR en TAF).

De beschikbare stations zijn de gele en rode punten op de kaart.

Ga met uw muis naar het station om de naam te zien.

Klik dan om waarnemingen en weersverwachtingen te zien.

kaart wijzigen: klik op de groene knoppen met een zwart kruis om in te zoomen, op de groene knop met een streepje om uit te zoomen of op de groene pijlen voor aangrenzende kaarten.


METAR-TAF: